Time;durP1;ratioP1;P1;durP2;ratioP2;P2;SDS_P1;SDS_P2;PMS_P1;PMS_P2;Temp;Humidity;BMP_temperature;BMP_pressure;BME280_temperature;BME280_humidity;BME280_pressure;Samples;Min_cycle;Max_cycle;Signal;HPM_P1;HPM_P2
2023/12/29 00:02:19;;;;;;;1.97;1.43;;;13.20;59.20;11.90;96563.00;;;;4975537;28;20237;-84
2023/12/29 00:04:46;;;;;;;1.57;1.30;;;13.10;59.40;11.90;96556.00;;;;4975165;28;20255;-84
2023/12/29 00:07:13;;;;;;;1.87;1.30;;;13.10;59.50;11.80;96554.00;;;;4975926;28;20234;-84
2023/12/29 00:09:41;;;;;;;1.80;1.43;;;12.90;59.60;11.70;96547.00;;;;4977258;28;20223;-84
2023/12/29 00:12:10;;;;;;;1.53;1.43;;;12.90;59.70;11.60;96544.00;;;;4976902;28;20683;-84
2023/12/29 00:14:39;;;;;;;3.23;1.70;;;12.80;59.80;11.50;96542.00;;;;4977144;28;20235;-84
2023/12/29 00:17:06;;;;;;;1.60;1.40;;;12.70;59.90;11.50;96539.00;;;;4977442;28;20669;-84
2023/12/29 00:19:33;;;;;;;1.87;1.60;;;12.60;60.00;11.40;96547.00;;;;4976979;28;20622;-84
2023/12/29 00:22:02;;;;;;;5.73;1.63;;;12.60;60.30;11.30;96544.00;;;;4976715;28;20203;-84
2023/12/29 00:24:31;;;;;;;1.43;1.20;;;12.50;60.50;11.30;96537.00;;;;4976966;28;20333;-84
2023/12/29 00:26:59;;;;;;;1.70;1.10;;;12.50;60.90;11.20;96539.00;;;;4976670;28;20262;-85
2023/12/29 00:29:32;;;;;;;1.17;1.00;;;12.40;61.20;11.20;96530.00;;;;4976825;28;20655;-84
2023/12/29 00:32:00;;;;;;;4.13;1.30;;;12.40;61.60;11.20;96525.00;;;;4976208;28;20258;-85
2023/12/29 00:34:27;;;;;;;6.77;1.93;;;12.30;61.70;11.20;96524.00;;;;4975671;28;20203;-85
2023/12/29 00:36:54;;;;;;;1.23;1.13;;;12.30;61.90;11.10;96535.00;;;;4976628;28;20294;-85
2023/12/29 00:39:28;;;;;;;1.40;1.30;;;12.30;62.10;11.10;96534.00;;;;4976754;28;20214;-85
2023/12/29 00:41:56;;;;;;;1.83;1.20;;;12.20;62.10;11.10;96521.00;;;;4976603;28;20772;-84
2023/12/29 00:44:23;;;;;;;1.40;1.27;;;12.20;62.10;11.00;96536.00;;;;4976760;28;20580;-84
2023/12/29 00:46:52;;;;;;;1.40;1.30;;;12.20;62.90;11.00;96529.00;;;;4976274;28;20302;-85
2023/12/29 00:49:19;;;;;;;1.70;1.43;;;12.10;62.20;10.90;96535.00;;;;4976399;28;20210;-85
2023/12/29 00:51:49;;;;;;;1.97;1.50;;;12.10;62.40;10.90;96533.00;;;;4976321;28;20660;-85
2023/12/29 00:54:16;;;;;;;1.60;1.50;;;12.10;62.80;10.90;96531.00;;;;4976185;28;20277;-84
2023/12/29 00:56:49;;;;;;;1.93;1.30;;;12.00;62.90;10.90;96534.00;;;;4975844;28;20247;-84
2023/12/29 00:59:16;;;;;;;1.87;1.10;;;12.00;63.20;10.90;96534.00;;;;4982441;28;20203;-85
2023/12/29 01:01:44;;;;;;;2.70;1.37;;;12.00;63.30;10.90;96538.00;;;;4976047;28;20280;-85
2023/12/29 01:04:13;;;;;;;8.00;1.60;;;12.00;63.50;10.90;96537.00;;;;4976103;28;20227;-85
2023/12/29 01:06:40;;;;;;;2.90;1.20;;;12.00;63.60;10.90;96527.00;;;;4975484;28;20251;-84
2023/12/29 01:09:10;;;;;;;2.77;1.10;;;12.00;63.60;10.80;96532.00;;;;4975767;28;20227;-85
2023/12/29 01:11:37;;;;;;;1.30;1.20;;;12.00;63.60;10.80;96538.00;;;;4976059;28;20195;-85
2023/12/29 01:14:05;;;;;;;1.50;1.40;;;12.00;63.50;10.80;96537.00;;;;4975851;28;20291;-85
2023/12/29 01:16:32;;;;;;;1.57;1.43;;;12.00;63.40;10.70;96549.00;;;;4974621;28;20216;-85
2023/12/29 01:18:59;;;;;;;3.40;1.60;;;11.90;63.40;10.70;96532.00;;;;4974025;28;20293;-85
2023/12/29 01:21:28;;;;;;;4.23;2.03;;;11.90;63.40;10.60;96539.00;;;;4974321;28;20234;-84
2023/12/29 01:23:55;;;;;;;4.07;2.30;;;11.80;63.50;10.50;96532.00;;;;4973359;28;20239;-84
2023/12/29 01:26:22;;;;;;;1.80;1.70;;;11.80;63.50;10.50;96534.00;;;;4973533;28;20255;-84
2023/12/29 01:28:49;;;;;;;1.57;1.47;;;11.80;63.50;10.40;96527.00;;;;4973658;28;20203;-85
2023/12/29 01:31:16;;;;;;;1.77;1.03;;;11.70;63.30;10.40;96532.00;;;;4975094;28;20226;-85
2023/12/29 01:33:44;;;;;;;1.40;1.30;;;11.70;63.30;10.30;96537.00;;;;4975816;28;20223;-85
2023/12/29 01:36:19;;;;;;;2.40;1.27;;;11.60;63.40;10.30;96530.00;;;;4976356;28;20715;-85
2023/12/29 01:38:47;;;;;;;1.83;1.20;;;11.50;63.30;10.20;96533.00;;;;4975859;28;20179;-85
2023/12/29 01:41:15;;;;;;;1.60;1.23;;;11.50;63.30;10.10;96536.00;;;;4975271;28;20242;-84
2023/12/29 01:44:19;;;;;;;1.50;1.40;;;11.40;63.30;10.00;96531.00;;;;4975446;28;20278;-84
2023/12/29 01:46:47;;;;;;;1.57;1.30;;;11.30;63.40;10.00;96530.00;;;;4974087;28;20226;-85
2023/12/29 01:49:17;;;;;;;3.77;1.17;;;11.20;63.30;9.90;96532.00;;;;4975475;28;20238;-85
2023/12/29 01:51:45;;;;;;;1.40;1.30;;;11.20;63.40;9.80;96523.00;;;;4975789;28;20207;-85
2023/12/29 01:54:14;;;;;;;1.60;1.50;;;11.20;63.50;9.80;96525.00;;;;4975420;28;20207;-84
2023/12/29 01:56:43;;;;;;;1.43;1.23;;;11.10;63.60;9.70;96517.00;;;;4975126;28;20259;-85
2023/12/29 01:59:10;;;;;;;1.87;1.23;;;11.00;64.40;9.60;96513.00;;;;4975344;28;20667;-85
2023/12/29 02:01:40;;;;;;;2.50;1.60;;;11.00;63.70;9.60;96515.00;;;;4975394;28;20609;-85
2023/12/29 02:04:08;;;;;;;2.10;1.40;;;10.90;63.80;9.50;96504.00;;;;4975062;28;20224;-85
2023/12/29 02:06:36;;;;;;;2.90;1.47;;;10.80;63.80;9.50;96509.00;;;;4974693;28;20370;-85
2023/12/29 02:09:04;;;;;;;1.57;1.47;;;10.80;64.70;9.40;96507.00;;;;4974091;28;20231;-84
2023/12/29 02:11:33;;;;;;;2.37;1.63;;;10.70;64.00;9.30;96506.00;;;;4974357;28;20306;-85
2023/12/29 02:14:02;;;;;;;3.53;1.40;;;10.70;64.20;9.30;96510.00;;;;4973288;28;20315;-84
2023/12/29 02:16:52;;;;;;;1.70;1.60;;;10.60;64.20;9.30;96496.00;;;;4973390;28;20245;-85
2023/12/29 02:19:38;;;;;;;4.53;3.30;;;10.60;64.30;9.20;96512.00;;;;4973467;28;20188;-85
2023/12/29 02:22:06;;;;;;;2.80;2.53;;;10.50;64.20;9.10;96502.00;;;;4973099;28;20203;-85
2023/12/29 02:24:36;;;;;;;5.53;2.90;;;10.50;64.20;9.10;96499.00;;;;4973351;28;20255;-85
2023/12/29 02:27:19;;;;;;;3.23;2.07;;;10.40;64.40;9.00;96505.00;;;;4974617;28;20592;-85
2023/12/29 02:30:00;;;;;;;4.73;1.50;;;10.40;64.60;9.00;96501.00;;;;4975113;28;20253;-84
2023/12/29 02:32:30;;;;;;;2.07;1.60;;;10.30;64.70;8.90;96489.00;;;;4974038;28;20219;-84
2023/12/29 02:35:01;;;;;;;3.17;1.80;;;10.30;65.50;8.90;96470.00;;;;4975608;28;20230;-84
2023/12/29 02:37:29;;;;;;;1.73;1.40;;;10.20;64.90;8.80;96470.00;;;;4975154;28;20627;-84
2023/12/29 02:40:00;;;;;;;1.77;1.57;;;10.20;65.00;8.80;96472.00;;;;4975224;28;20286;-84
2023/12/29 02:42:29;;;;;;;3.37;1.50;;;10.20;65.00;8.80;96464.00;;;;4975865;28;20219;-84
2023/12/29 02:44:56;;;;;;;1.53;1.43;;;10.20;65.20;8.70;96455.00;;;;4974554;28;20313;-84
2023/12/29 02:47:23;;;;;;;2.00;1.47;;;10.10;65.20;8.70;96443.00;;;;4974584;28;20223;-84
2023/12/29 02:49:50;;;;;;;2.23;1.43;;;10.00;65.30;8.60;96441.00;;;;4973424;28;20231;-84
2023/12/29 02:52:17;;;;;;;1.47;1.37;;;10.00;65.40;8.60;96446.00;;;;4973826;28;20219;-85
2023/12/29 02:54:44;;;;;;;7.37;1.60;;;9.90;65.50;8.60;96443.00;;;;4973803;28;20222;-84
2023/12/29 02:57:12;;;;;;;1.73;1.60;;;9.90;65.70;8.60;96457.00;;;;4973493;28;20242;-84
2023/12/29 02:59:40;;;;;;;2.00;1.30;;;9.90;66.10;8.60;96443.00;;;;4973861;28;20303;-84
2023/12/29 03:02:07;;;;;;;1.70;1.50;;;10.20;66.50;8.60;96435.00;;;;4974872;28;20234;-85
2023/12/29 03:04:34;;;;;;;3.83;1.67;;;9.90;66.40;8.60;96441.00;;;;4973824;28;20302;-84
2023/12/29 03:07:01;;;;;;;2.50;1.53;;;9.90;66.60;8.60;96435.00;;;;4973586;28;20231;-85
2023/12/29 03:09:29;;;;;;;4.13;1.50;;;9.90;66.70;8.50;96432.00;;;;4972436;28;20848;-85
2023/12/29 03:11:56;;;;;;;1.53;1.43;;;9.90;66.70;8.60;96427.00;;;;4972762;28;20274;-84
2023/12/29 03:14:23;;;;;;;2.40;1.47;;;9.90;66.80;8.60;96427.00;;;;4972804;28;20602;-85
2023/12/29 03:16:51;;;;;;;2.03;1.20;;;9.90;66.80;8.60;96420.00;;;;4972733;28;20306;-85
2023/12/29 03:19:18;;;;;;;5.57;1.80;;;9.90;66.90;8.60;96418.00;;;;4972597;28;20245;-85
2023/12/29 03:21:46;;;;;;;2.60;1.33;;;9.90;66.90;8.60;96420.00;;;;4972867;28;20726;-85
2023/12/29 03:24:13;;;;;;;4.90;1.43;;;9.90;67.10;8.60;96420.00;;;;4974365;28;20234;-85
2023/12/29 03:26:40;;;;;;;1.60;1.27;;;10.00;67.10;8.60;96418.00;;;;4974363;28;20215;-85
2023/12/29 03:29:08;;;;;;;1.40;1.30;;;9.90;67.10;8.70;96415.00;;;;4974250;28;20204;-85
2023/12/29 03:31:35;;;;;;;2.40;1.30;;;9.90;67.70;8.60;96416.00;;;;4974008;28;20686;-85
2023/12/29 03:34:04;;;;;;;2.03;1.50;;;9.90;66.90;8.60;96411.00;;;;4974751;28;20235;-85
2023/12/29 03:36:31;;;;;;;3.97;1.70;;;9.90;66.80;8.60;96410.00;;;;4974234;28;20259;-85
2023/12/29 03:38:58;;;;;;;1.93;1.47;;;9.90;66.70;8.60;96412.00;;;;4973712;28;20227;-85
2023/12/29 03:41:25;;;;;;;3.10;1.50;;;9.90;66.80;8.60;96413.00;;;;4974419;28;20335;-85
2023/12/29 03:43:52;;;;;;;4.20;1.80;;;9.90;66.70;8.50;96415.00;;;;4973861;28;20250;-84
2023/12/29 03:46:21;;;;;;;4.57;1.80;;;9.80;66.50;8.50;96411.00;;;;4973964;28;20230;-84
2023/12/29 03:48:49;;;;;;;1.90;1.30;;;9.80;66.50;8.40;96411.00;;;;4974101;28;20243;-85
2023/12/29 03:51:20;;;;;;;4.47;1.50;;;9.80;66.60;8.40;96412.00;;;;4974236;28;20219;-85
2023/12/29 03:53:47;;;;;;;4.50;1.57;;;9.80;66.70;8.40;96419.00;;;;4974428;28;20215;-86
2023/12/29 03:56:16;;;;;;;4.60;1.70;;;9.80;66.80;8.30;96417.00;;;;4974107;28;20255;-85
2023/12/29 03:58:43;;;;;;;1.60;1.50;;;9.70;66.80;8.30;96411.00;;;;4974084;28;20208;-85
2023/12/29 04:01:12;;;;;;;1.97;1.40;;;9.70;67.00;8.30;96393.00;;;;4973242;28;20283;-85
2023/12/29 04:03:49;;;;;;;2.90;1.60;;;9.70;67.10;8.30;96406.00;;;;4973153;28;20200;-85
2023/12/29 04:06:18;;;;;;;1.80;1.60;;;9.70;67.40;8.30;96410.00;;;;4971474;28;20250;-85
2023/12/29 04:08:45;;;;;;;3.73;1.70;;;9.70;67.50;8.40;96412.00;;;;4972140;28;20286;-85
2023/12/29 04:11:13;;;;;;;1.83;1.60;;;9.70;67.60;8.40;96403.00;;;;4975257;28;20211;-85
2023/12/29 04:13:40;;;;;;;4.30;1.60;;;9.70;67.70;8.40;96411.00;;;;4975702;28;20199;-85
2023/12/29 04:16:07;;;;;;;4.23;1.70;;;9.70;67.80;8.50;96413.00;;;;4975396;28;20287;-85
2023/12/29 04:18:34;;;;;;;4.17;1.40;;;9.80;68.00;8.50;96404.00;;;;4975795;28;20231;-85
2023/12/29 04:21:02;;;;;;;2.13;1.50;;;9.80;68.10;8.50;96403.00;;;;4976798;28;20286;-85
2023/12/29 04:23:30;;;;;;;3.23;1.60;;;9.80;68.20;8.60;96397.00;;;;4977031;28;20207;-85
2023/12/29 04:25:57;;;;;;;2.47;1.80;;;9.90;68.20;8.60;96390.00;;;;4976287;28;20734;-85
2023/12/29 04:28:25;;;;;;;2.27;1.77;;;9.90;68.20;8.70;96400.00;;;;4976767;28;20203;-83
2023/12/29 04:30:52;;;;;;;3.03;1.57;;;9.90;68.30;8.70;96398.00;;;;4976304;28;20231;-84
2023/12/29 04:33:19;;;;;;;2.77;1.30;;;10.00;68.30;8.70;96412.00;;;;4976812;28;20254;-84
2023/12/29 04:35:48;;;;;;;1.60;1.50;;;10.00;68.40;8.80;96409.00;;;;4976301;28;20268;-84
2023/12/29 04:38:19;;;;;;;2.80;1.60;;;10.00;68.40;8.80;96402.00;;;;4976250;28;20231;-84
2023/12/29 04:40:48;;;;;;;2.50;1.60;;;10.10;68.50;8.90;96390.00;;;;4975856;28;20234;-84
2023/12/29 04:43:15;;;;;;;1.90;1.57;;;10.20;68.50;8.90;96399.00;;;;4976298;28;20231;-84
2023/12/29 04:45:42;;;;;;;1.80;1.70;;;10.20;68.40;8.90;96404.00;;;;4976088;28;20251;-85
2023/12/29 04:48:10;;;;;;;1.40;1.30;;;10.20;68.30;9.00;96404.00;;;;4976111;28;20294;-84
2023/12/29 04:50:43;;;;;;;3.60;1.63;;;10.30;68.30;9.00;96409.00;;;;4976517;28;20269;-85
2023/12/29 04:53:10;;;;;;;4.53;1.90;;;10.30;68.30;9.00;96407.00;;;;4976430;28;20187;-84
2023/12/29 04:55:37;;;;;;;3.33;1.57;;;10.30;68.30;9.00;96397.00;;;;4975465;28;20266;-85
2023/12/29 04:58:06;;;;;;;2.30;1.50;;;10.30;68.40;9.10;96400.00;;;;4975914;28;20199;-84
2023/12/29 05:00:33;;;;;;;4.00;1.90;;;10.40;68.50;9.10;96399.00;;;;4974197;28;20203;-84
2023/12/29 05:03:00;;;;;;;1.90;1.77;;;10.40;68.40;9.20;96402.00;;;;4974128;28;20205;-84
2023/12/29 05:05:28;;;;;;;2.13;1.57;;;10.40;68.50;9.20;96397.00;;;;4974226;28;20310;-83
2023/12/29 05:07:56;;;;;;;2.40;2.00;;;10.50;68.50;9.30;96398.00;;;;4973974;28;20218;-83
2023/12/29 05:10:23;;;;;;;1.43;1.30;;;10.50;68.30;9.30;96395.00;;;;4973494;28;20287;-83
2023/12/29 05:12:50;;;;;;;3.20;1.63;;;10.50;68.30;9.30;96386.00;;;;4973594;28;20231;-84
2023/12/29 05:15:18;;;;;;;1.90;1.57;;;10.50;68.30;9.30;96387.00;;;;4982400;28;20379;-84
2023/12/29 05:17:46;;;;;;;1.40;1.30;;;10.60;68.20;9.30;96389.00;;;;4974207;28;20199;-84
2023/12/29 05:20:13;;;;;;;2.47;1.07;;;10.60;68.10;9.30;96392.00;;;;4981060;28;20195;-83
2023/12/29 05:22:40;;;;;;;3.03;1.40;;;10.60;68.00;9.30;96389.00;;;;4973264;28;20199;-83
2023/12/29 05:25:08;;;;;;;3.87;1.43;;;10.60;68.00;9.40;96397.00;;;;4980934;28;20196;-83
2023/12/29 05:27:36;;;;;;;2.80;1.47;;;10.70;68.00;9.40;96398.00;;;;4982687;28;20199;-83
2023/12/29 05:30:03;;;;;;;1.43;1.33;;;10.70;67.90;9.40;96393.00;;;;4973930;28;20226;-83
2023/12/29 05:32:32;;;;;;;1.40;1.30;;;10.70;67.70;9.40;96393.00;;;;4973241;28;20238;-83
2023/12/29 05:34:59;;;;;;;1.27;1.17;;;10.70;67.40;9.40;96401.00;;;;4973950;28;20238;-83
2023/12/29 05:37:26;;;;;;;1.67;1.40;;;10.70;67.40;9.30;96396.00;;;;4975155;28;20227;-83
2023/12/29 05:39:53;;;;;;;1.53;1.43;;;10.70;67.30;9.30;96397.00;;;;4980070;28;20565;-83
2023/12/29 05:42:21;;;;;;;2.60;1.30;;;10.80;67.40;9.30;96400.00;;;;4973999;28;20258;-83
2023/12/29 05:44:48;;;;;;;1.70;1.60;;;10.70;67.30;9.30;96402.00;;;;4973861;28;20655;-83
2023/12/29 05:47:16;;;;;;;1.57;1.43;;;10.70;67.40;9.30;96404.00;;;;4974813;28;20219;-82
2023/12/29 05:49:45;;;;;;;1.67;1.57;;;10.70;67.40;9.30;96414.00;;;;4973634;28;20258;-83
2023/12/29 05:52:15;;;;;;;3.43;1.47;;;10.80;67.60;9.40;96417.00;;;;4974037;28;20196;-83
2023/12/29 05:54:42;;;;;;;2.77;1.37;;;10.70;67.50;9.40;96412.00;;;;4980029;28;20206;-83
2023/12/29 05:57:10;;;;;;;1.53;1.43;;;10.80;67.70;9.40;96417.00;;;;4971300;28;20710;-83
2023/12/29 05:59:37;;;;;;;1.77;1.63;;;10.80;67.80;9.50;96408.00;;;;4972103;28;20204;-83
2023/12/29 06:02:05;;;;;;;1.40;1.30;;;10.80;67.90;9.50;96419.00;;;;4969914;28;20222;-82
2023/12/29 06:04:32;;;;;;;1.50;1.40;;;10.90;68.00;9.60;96426.00;;;;4971566;28;20432;-83
2023/12/29 06:07:01;;;;;;;1.97;1.40;;;10.90;67.90;9.60;96422.00;;;;4978288;28;20649;-83
2023/12/29 06:09:29;;;;;;;1.83;1.50;;;10.90;67.90;9.60;96428.00;;;;4971742;28;20207;-82
2023/12/29 06:11:57;;;;;;;2.57;1.63;;;10.90;68.00;9.70;96431.00;;;;4974388;28;20191;-83
2023/12/29 06:14:24;;;;;;;3.10;1.67;;;11.00;68.10;9.70;96429.00;;;;4974971;28;20210;-82
2023/12/29 06:16:53;;;;;;;2.47;1.33;;;11.00;68.10;9.70;96429.00;;;;4970260;28;20219;-83
2023/12/29 06:19:20;;;;;;;2.77;1.60;;;11.10;68.10;9.80;96429.00;;;;4975053;28;20254;-83
2023/12/29 06:21:47;;;;;;;2.90;1.57;;;11.10;68.10;9.80;96429.00;;;;4974674;28;20270;-82
2023/12/29 06:24:16;;;;;;;1.57;1.47;;;11.10;68.80;9.80;96424.00;;;;4973421;28;20233;-83
2023/12/29 06:26:44;;;;;;;1.40;1.30;;;11.20;68.00;9.90;96430.00;;;;4973005;28;20644;-83
2023/12/29 06:29:11;;;;;;;1.73;1.40;;;11.20;67.90;9.90;96427.00;;;;4972542;28;20282;-83
2023/12/29 06:31:42;;;;;;;1.60;1.50;;;11.20;67.90;9.90;96433.00;;;;4972305;28;20266;-82
2023/12/29 06:34:09;;;;;;;1.40;1.30;;;11.20;67.80;9.90;96424.00;;;;4974104;28;20195;-82
2023/12/29 06:36:37;;;;;;;1.43;1.33;;;11.20;67.80;9.90;96424.00;;;;4972728;28;20223;-82
2023/12/29 06:39:04;;;;;;;1.30;1.20;;;11.20;67.70;10.00;96428.00;;;;4973071;28;20282;-83
2023/12/29 06:41:33;;;;;;;1.53;1.27;;;11.20;67.70;10.00;96428.00;;;;4981361;28;20230;-83
2023/12/29 06:44:00;;;;;;;1.50;1.27;;;11.30;67.70;10.00;96432.00;;;;4972467;28;20726;-82
2023/12/29 06:46:27;;;;;;;2.20;1.33;;;11.30;67.60;10.00;96423.00;;;;4973215;28;20235;-83
2023/12/29 06:48:54;;;;;;;3.40;1.83;;;11.30;67.70;10.00;96420.00;;;;4974605;28;20196;-83
2023/12/29 06:51:22;;;;;;;1.43;1.33;;;11.30;67.70;10.10;96426.00;;;;4971807;28;20204;-83
2023/12/29 06:53:50;;;;;;;2.00;1.30;;;11.40;67.70;10.10;96419.00;;;;4971278;28;20199;-83
2023/12/29 06:56:18;;;;;;;2.93;1.97;;;11.40;67.70;10.10;96413.00;;;;4972759;28;20676;-83
2023/12/29 06:58:46;;;;;;;1.87;1.43;;;11.40;67.60;10.20;96429.00;;;;4971699;28;20625;-83
2023/12/29 07:01:15;;;;;;;1.50;1.40;;;11.40;67.60;10.30;96426.00;;;;4971551;28;20262;-83
2023/12/29 07:03:43;;;;;;;1.90;1.50;;;11.50;67.70;10.40;96431.00;;;;4973133;28;20714;-83
2023/12/29 07:06:11;;;;;;;2.20;1.43;;;11.50;67.70;10.50;96424.00;;;;4972398;28;20223;-82
2023/12/29 07:08:38;;;;;;;1.47;1.37;;;11.60;68.30;10.50;96424.00;;;;4975460;28;20209;-83
2023/12/29 07:11:10;;;;;;;2.57;1.63;;;11.70;67.60;10.70;96427.00;;;;4979702;28;20199;-82
2023/12/29 07:13:38;;;;;;;2.00;1.43;;;11.80;67.60;10.80;96427.00;;;;4972269;28;20240;-83
2023/12/29 07:16:07;;;;;;;2.13;1.50;;;11.80;67.60;10.90;96440.00;;;;4973156;28;20223;-83
2023/12/29 07:18:34;;;;;;;1.50;1.40;;;11.90;67.40;11.00;96441.00;;;;4973460;28;20258;-82
2023/12/29 07:21:02;;;;;;;1.50;1.40;;;12.00;67.30;11.10;96439.00;;;;4983990;28;20195;-82
2023/12/29 07:23:29;;;;;;;2.90;1.57;;;12.10;67.10;11.20;96440.00;;;;4981646;28;20603;-83
2023/12/29 07:25:56;;;;;;;1.83;1.70;;;12.20;67.00;11.30;96449.00;;;;4977455;28;20234;-83
2023/12/29 07:28:24;;;;;;;1.50;1.40;;;12.30;67.00;11.40;96449.00;;;;4975752;28;20199;-83
2023/12/29 07:30:51;;;;;;;1.30;1.20;;;12.40;67.00;11.50;96450.00;;;;4973916;28;20241;-83
2023/12/29 07:33:20;;;;;;;1.70;1.60;;;12.50;66.90;11.50;96448.00;;;;4978322;28;20648;-83
2023/12/29 07:35:47;;;;;;;1.67;1.40;;;12.60;66.60;11.60;96451.00;;;;4975743;28;20218;-83
2023/12/29 07:38:14;;;;;;;1.40;1.30;;;12.70;66.50;11.70;96453.00;;;;4974285;28;20323;-82
2023/12/29 07:40:42;;;;;;;1.50;1.40;;;12.70;66.20;11.80;96446.00;;;;4981024;28;20249;-83
2023/12/29 07:43:09;;;;;;;2.20;2.00;;;12.80;66.10;11.90;96453.00;;;;4974653;28;20199;-83
2023/12/29 07:45:37;;;;;;;1.70;1.47;;;12.90;66.00;11.90;96453.00;;;;4984575;28;20235;-83
2023/12/29 07:48:05;;;;;;;2.13;1.60;;;12.90;65.90;12.00;96463.00;;;;4975145;28;20278;-83
2023/12/29 07:50:34;;;;;;;2.43;1.37;;;13.00;65.80;12.10;96455.00;;;;4978229;28;20203;-83
2023/12/29 07:53:02;;;;;;;2.43;1.80;;;13.10;65.60;12.10;96461.00;;;;4983111;28;20200;-83
2023/12/29 07:55:30;;;;;;;1.53;1.43;;;13.10;65.50;12.20;96459.00;;;;4976506;28;20282;-83
2023/12/29 07:57:57;;;;;;;2.53;1.40;;;13.20;65.40;12.20;96456.00;;;;4976757;28;20197;-83
2023/12/29 08:00:24;;;;;;;1.53;1.43;;;13.20;65.20;12.30;96464.00;;;;4976539;28;20295;-83
2023/12/29 08:02:52;;;;;;;5.13;1.60;;;13.30;65.10;12.30;96462.00;;;;4968817;28;20283;-83
2023/12/29 08:05:19;;;;;;;1.50;1.40;;;13.30;65.10;12.30;96463.00;;;;4977553;28;20219;-83
2023/12/29 08:07:48;;;;;;;1.67;1.40;;;13.40;65.00;12.30;96474.00;;;;4978464;28;20295;-83
2023/12/29 08:10:17;;;;;;;1.50;1.40;;;13.40;64.70;12.30;96463.00;;;;4977250;28;20275;-82
2023/12/29 08:12:46;;;;;;;1.70;1.60;;;13.40;64.70;12.40;96467.00;;;;4970030;28;20195;-83
2023/12/29 08:15:15;;;;;;;1.50;1.40;;;13.40;64.70;12.40;96479.00;;;;4977237;28;20216;-83
2023/12/29 08:17:43;;;;;;;1.67;1.57;;;13.40;64.80;12.40;96475.00;;;;4986608;28;20202;-83
2023/12/29 08:20:13;;;;;;;1.50;1.40;;;13.50;64.80;12.40;96473.00;;;;4977863;28;20200;-83
2023/12/29 08:22:41;;;;;;;1.83;1.47;;;13.50;64.80;12.40;96474.00;;;;4976961;28;20198;-83
2023/12/29 08:25:11;;;;;;;1.40;1.30;;;13.50;64.90;12.40;96472.00;;;;4979469;28;20221;-83
2023/12/29 08:27:41;;;;;;;1.70;1.50;;;13.50;65.10;12.40;96468.00;;;;4976231;28;20223;-82
2023/12/29 08:30:10;;;;;;;1.23;1.00;;;13.50;65.20;12.50;96484.00;;;;4976206;28;20204;-82
2023/12/29 08:32:38;;;;;;;1.43;1.20;;;13.50;65.30;12.50;96490.00;;;;4977630;28;20215;-83
2023/12/29 08:35:06;;;;;;;1.17;1.07;;;13.50;65.40;12.50;96479.00;;;;4975975;28;20196;-83
2023/12/29 08:37:33;;;;;;;1.20;1.10;;;13.60;65.50;12.50;96487.00;;;;4974659;28;20195;-83
2023/12/29 08:40:00;;;;;;;1.20;1.10;;;13.60;65.50;12.60;96479.00;;;;4979247;28;20199;-83
2023/12/29 08:42:29;;;;;;;1.20;1.10;;;13.60;65.60;12.60;96483.00;;;;4988367;28;20202;-83
2023/12/29 08:44:56;;;;;;;0.80;0.80;;;13.60;65.50;12.60;96477.00;;;;4972828;28;20303;-83
2023/12/29 08:47:23;;;;;;;1.83;1.00;;;13.70;66.40;12.70;96479.00;;;;4981329;28;20317;-82
2023/12/29 08:49:51;;;;;;;1.03;0.97;;;13.70;65.60;12.70;96474.00;;;;4967376;28;20195;-83
2023/12/29 08:52:18;;;;;;;1.13;1.03;;;13.70;65.70;12.70;96485.00;;;;4969230;28;20645;-82
2023/12/29 08:54:45;;;;;;;1.10;1.00;;;13.70;65.80;12.70;96484.00;;;;4973051;28;20199;-83
2023/12/29 08:57:12;;;;;;;1.10;1.00;;;13.80;65.80;12.80;96491.00;;;;4974296;28;20314;-83
2023/12/29 08:59:41;;;;;;;1.00;0.90;;;13.80;65.90;12.80;96476.00;;;;4978064;28;20223;-83
2023/12/29 09:02:08;;;;;;;0.90;0.90;;;13.80;65.80;12.90;96467.00;;;;4975738;28;20259;-82
2023/12/29 09:04:35;;;;;;;1.20;0.70;;;13.90;65.80;12.90;96465.00;;;;4977620;28;20286;-82
2023/12/29 09:07:04;;;;;;;1.00;0.90;;;13.90;65.80;12.90;96475.00;;;;4975529;28;20246;-83
2023/12/29 09:09:31;;;;;;;2.20;1.00;;;13.90;65.80;13.00;96473.00;;;;4977444;28;20222;-83
2023/12/29 09:11:58;;;;;;;0.80;0.80;;;14.00;66.00;13.10;96473.00;;;;4974161;28;20203;-83
2023/12/29 09:14:25;;;;;;;1.00;0.90;;;14.00;66.10;13.10;96474.00;;;;4974583;28;20222;-83
2023/12/29 09:16:54;;;;;;;1.77;1.00;;;14.10;66.00;13.20;96487.00;;;;4969390;28;20730;-83
2023/12/29 09:19:21;;;;;;;2.40;0.90;;;14.10;65.80;13.20;96480.00;;;;4974526;28;20231;-82
2023/12/29 09:21:48;;;;;;;0.70;0.70;;;14.20;65.80;13.30;96485.00;;;;4975132;28;20235;-82
2023/12/29 09:24:15;;;;;;;2.10;0.90;;;14.20;65.70;13.30;96487.00;;;;4974983;28;20680;-83
2023/12/29 09:26:42;;;;;;;1.20;0.90;;;14.20;65.60;13.40;96491.00;;;;4972940;28;20253;-83
2023/12/29 09:29:10;;;;;;;1.03;1.03;;;14.30;65.50;13.40;96504.00;;;;4982082;28;20234;-83
2023/12/29 09:31:37;;;;;;;0.80;0.80;;;14.30;65.40;13.40;96498.00;;;;4986100;28;20235;-83
2023/12/29 09:34:05;;;;;;;0.80;0.80;;;14.40;65.30;13.50;96500.00;;;;4985389;28;20637;-83
2023/12/29 09:36:32;;;;;;;0.70;0.70;;;14.40;65.10;13.50;96495.00;;;;4980430;28;20283;-83
2023/12/29 09:39:00;;;;;;;0.90;0.90;;;14.40;65.10;13.50;96498.00;;;;4983602;28;20278;-83
2023/12/29 09:41:31;;;;;;;1.40;1.20;;;14.50;65.00;13.60;96501.00;;;;4986151;28;20226;-83
2023/12/29 09:44:02;;;;;;;0.80;0.80;;;14.60;65.00;13.60;96494.00;;;;4970056;28;20235;-83
2023/12/29 09:46:34;;;;;;;1.80;1.00;;;14.60;64.80;13.70;96498.00;;;;4986722;28;20253;-83
2023/12/29 09:49:08;;;;;;;1.23;1.00;;;14.60;64.70;13.70;96488.00;;;;4978398;28;20278;-83
2023/12/29 09:51:38;;;;;;;0.90;0.90;;;14.70;64.60;13.70;96488.00;;;;4982088;28;20250;-83
2023/12/29 09:54:08;;;;;;;0.80;0.80;;;14.70;64.60;13.80;96484.00;;;;4981279;28;20233;-83
2023/12/29 09:56:36;;;;;;;0.70;0.70;;;14.80;64.60;13.80;96492.00;;;;4975205;28;20247;-83
2023/12/29 09:59:05;;;;;;;0.70;0.70;;;14.80;64.60;13.90;96499.00;;;;4982779;28;20613;-83
2023/12/29 10:01:34;;;;;;;1.10;1.00;;;14.80;65.30;14.00;96490.00;;;;4984841;28;20210;-83
2023/12/29 10:04:02;;;;;;;0.90;0.80;;;14.90;64.70;14.00;96493.00;;;;4979629;28;20219;-83
2023/12/29 10:06:39;;;;;;;1.07;0.97;;;14.90;64.80;14.10;96491.00;;;;4987981;28;20285;-83
2023/12/29 10:09:13;;;;;;;1.10;1.00;;;15.00;64.70;14.20;96486.00;;;;4980676;28;20229;-83
2023/12/29 10:11:43;;;;;;;1.50;1.23;;;15.10;64.70;14.40;96483.00;;;;4975887;28;20203;-83
2023/12/29 10:14:23;;;;;;;1.10;0.80;;;15.30;64.80;14.50;96477.00;;;;4983255;28;20195;-83
2023/12/29 10:17:03;;;;;;;0.80;0.80;;;15.30;64.60;14.70;96485.00;;;;4980118;28;20305;-83
2023/12/29 10:19:40;;;;;;;1.50;0.67;;;15.50;64.80;14.80;96471.00;;;;4977566;28;20707;-83
2023/12/29 10:22:19;;;;;;;1.57;0.70;;;15.70;64.60;14.90;96474.00;;;;4985720;28;20281;-83
2023/12/29 10:24:47;;;;;;;0.70;0.63;;;15.80;64.10;15.10;96485.00;;;;4986313;28;20257;-83
2023/12/29 10:27:14;;;;;;;0.80;0.80;;;15.90;64.20;15.20;96471.00;;;;4986317;28;20278;-83
2023/12/29 10:29:41;;;;;;;1.03;0.73;;;16.00;63.90;15.30;96466.00;;;;4970580;28;20651;-83
2023/12/29 10:32:09;;;;;;;0.70;0.70;;;16.10;63.60;15.40;96463.00;;;;4980338;28;20440;-83
2023/12/29 10:34:37;;;;;;;1.57;1.00;;;16.20;63.60;15.50;96464.00;;;;4986176;28;20211;-83
2023/12/29 10:37:08;;;;;;;1.47;1.00;;;16.30;63.60;15.60;96472.00;;;;4982922;28;20230;-83
2023/12/29 10:39:37;;;;;;;0.60;0.60;;;16.40;63.40;15.70;96460.00;;;;4972842;28;20203;-83
2023/12/29 10:42:07;;;;;;;2.37;0.70;;;16.50;63.00;15.80;96450.00;;;;4978325;28;20230;-83
2023/12/29 10:44:36;;;;;;;0.60;0.60;;;16.60;63.00;15.90;96444.00;;;;4974199;28;20254;-83
2023/12/29 10:47:10;;;;;;;0.70;0.70;;;16.70;62.90;15.90;96444.00;;;;4973220;28;20235;-83
2023/12/29 10:49:37;;;;;;;0.67;0.67;;;16.80;62.80;16.00;96441.00;;;;4980665;28;20211;-84
2023/12/29 10:52:14;;;;;;;1.40;0.67;;;16.80;62.30;16.00;96434.00;;;;4981468;28;20274;-83
2023/12/29 10:54:42;;;;;;;1.67;0.70;;;16.90;61.60;16.00;96440.00;;;;4985258;28;20198;-83
2023/12/29 10:57:12;;;;;;;1.00;0.90;;;16.90;62.00;16.10;96439.00;;;;4985023;28;20224;-84
2023/12/29 10:59:40;;;;;;;1.03;0.87;;;17.00;61.80;16.10;96447.00;;;;4974837;28;20203;-84
2023/12/29 11:02:08;;;;;;;1.40;1.30;;;17.00;61.80;16.10;96441.00;;;;4978498;28;20229;-83
2023/12/29 11:04:35;;;;;;;0.90;0.90;;;17.00;61.70;16.20;96435.00;;;;4984236;28;20210;-83
2023/12/29 11:07:02;;;;;;;1.37;1.00;;;17.00;61.50;16.10;96421.00;;;;4987235;28;20254;-83